Latest Weather Observations for Cerberus

IDV60801

Issued at 5:02 pm EST Wednesday 29 July 2015 (issued every 30 minutes, with the page automatically refreshed every 10 minutes)

About weather observations | Map of weather stations | Latest weather observations for VIC | Other Formats
Station Details ID: 086361 Name: CERBERUS Lat: -38.36 Lon: 145.18 Height: 12.69 m
Data from the previous 72 hours. | See also: Recent months at Cerberus
Date/Time
EST
Temp
°C
App
Temp
°C
Dew
Point
Rel
Hum
%
Delta-T
°C
Wind Press
QNH
hPa
Press
MSL
hPa
Rain
since 9 am
mm
Dir
 
Spd
km/h
Gust
km/h
Spd
kts
Gust
kts
29/05:00pm 11.1 8.6 3.9 61 3.2 NNW 6 9 3 5 1027.7 1027.7 0.0
29/04:30pm 11.6 8.6 3.9 59 3.4 N 9 19 5 10 1027.7 1027.7 0.0
29/04:00pm 11.9 8.5 4.2 59 3.4 NNW 11 19 6 10 1028.0 1028.0 0.0
29/03:30pm 12.8 10.4 5.2 60 3.5 NW 7 13 4 7 1028.3 1028.3 0.0
29/03:00pm 12.0 9.5 5.0 62 3.2 NW 7 15 4 8 1028.7 1028.7 0.0
29/02:30pm 12.3 9.7 4.3 58 3.6 NNW 7 13 4 7 1028.8 1028.8 0.0
29/02:00pm 12.4 8.6 4.1 57 3.7 WNW 13 24 7 13 1029.3 1029.3 0.0
29/01:30pm 13.2 9.4 4.1 54 4.1 NW 13 22 7 12 1029.6 1029.6 0.0
29/01:00pm 13.0 9.2 3.9 54 4.1 WNW 13 26 7 14 1029.9 1029.9 0.0
29/12:30pm 12.4 8.5 3.6 55 3.9 NW 13 20 7 11 1030.6 1030.6 0.0
29/12:00pm 13.0 9.3 4.7 57 3.8 NW 13 22 7 12 1031.4 1031.4 0.0
29/11:30am 13.2 10.4 5.1 58 3.8 NW 9 17 5 9 1031.7 1031.7 0.0
29/11:00am 12.1 9.0 5.7 65 3.0 NW 11 19 6 10 1032.2 1032.2 0.0
29/10:30am 12.1 9.4 5.7 65 3.0 NW 9 19 5 10 1032.5 1032.5 0.0
29/10:00am 11.4 9.4 7.1 75 2.0 NNW 7 15 4 8 1032.6 1032.6 0.0
29/09:30am 10.8 8.9 7.5 80 1.6 NNW 7 11 4 6 1032.7 1032.7 0.0
29/09:00am 9.7 7.8 7.5 86 1.0 NW 7 13 4 7 1032.7 1032.7 0.0
29/08:30am 7.2 5.2 6.3 94 0.4 NNW 6 7 3 4 1033.0 1033.0 0.0
29/08:00am 6.7 4.6 5.7 93 0.4 NNW 6 6 3 3 1032.8 1032.8 0.0
29/07:30am 6.3 4.1 5.3 93 0.4 NNW 6 6 3 3 1032.5 1032.5 0.0
29/07:00am 7.0 5.3 5.8 92 0.5 NNW 4 6 2 3 1032.5 1032.5 0.0
29/06:30am 7.3 5.6 5.9 91 0.6 NNW 4 6 2 3 1032.5 1032.5 0.0
29/06:00am 7.8 6.2 6.3 90 0.7 NNW 4 6 2 3 1032.4 1032.4 0.0
29/05:30am 8.6 7.2 7.1 90 0.7 NNW 4 7 2 4 1032.2 1032.2 0.0
29/05:00am 8.9 7.5 7.4 90 0.7 NW 4 7 2 4 1032.2 1032.2 0.0
29/04:30am 8.9 7.5 7.4 90 0.7 NW 4 6 2 3 1032.4 1032.4 0.0
29/04:00am 9.0 7.7 7.5 90 0.7 NW 4 7 2 4 1032.2 1032.2 0.0
29/03:30am 9.3 7.0 7.6 89 0.8 NW 9 15 5 8 1032.4 1032.4 0.0
29/03:00am 9.1 6.8 7.5 90 0.8 NW 9 13 5 7 1032.5 1032.5 0.0
29/02:30am 9.2 6.2 7.8 91 0.7 NW 13 19 7 10 1032.9 1032.9 0.0
29/02:00am 8.6 6.9 7.5 93 0.5 NW 6 13 3 7 1032.8 1032.8 0.0
29/01:30am 8.3 6.9 7.2 93 0.5 NW 4 6 2 3 1032.5 1032.5 0.0
29/01:00am 8.4 7.1 7.5 94 0.4 NW 4 6 2 3 1032.7 1032.7 0.0
29/12:30am 8.0 6.6 7.1 94 0.4 NW 4 6 2 3 1033.1 1033.1 0.0
29/12:00am 7.5 6.0 6.6 94 0.4 NW 4 6 2 3 1033.3 1033.3 0.0
 
Date/Time
EST
Temp
°C
App
Temp
°C
Dew
Point
Rel
Hum
%
Delta-T
°C
Wind Press
QNH
hPa
Press
MSL
hPa
Rain
since 9 am
mm
Dir
 
Spd
km/h
Gust
km/h
Spd
kts
Gust
kts
28/11:30pm 6.6 5.2 5.6 93 0.4 NW 2 4 1 2 1033.4 1033.4 0.0
28/11:00pm 7.6 6.8 6.5 93 0.5 CALM 0 0 0 0 1033.5 1033.5 0.0
28/10:30pm 7.9 6.8 6.8 93 0.5 NW 2 2 1 1 1033.7 1033.7 0.0
28/10:00pm 7.6 6.8 6.5 93 0.5 CALM 0 0 0 0 1033.8 1033.8 0.0
28/09:30pm 7.8 7.0 6.7 93 0.5 CALM 0 0 0 0 1033.8 1033.8 0.0
28/09:00pm 7.8 7.0 6.7 93 0.5 CALM 0 2 0 1 1033.9 1033.9 0.0
28/08:30pm 7.0 6.1 5.9 93 0.5 CALM 0 6 0 3 1034.0 1034.0 0.0
28/08:00pm 6.7 5.3 5.5 92 0.5 NW 2 4 1 2 1033.7 1033.7 0.0
28/07:30pm 6.6 5.5 5.2 91 0.6 CALM 0 0 0 0 1033.8 1033.8 0.0
28/07:00pm 7.1 5.4 5.9 92 0.5 NW 4 4 2 2 1033.8 1033.8 0.0
28/06:30pm 7.2 5.4 5.5 89 0.7 WNW 4 4 2 2 1033.7 1033.7 0.0
28/06:00pm 8.7 7.1 6.2 84 1.1 WNW 4 4 2 2 1033.4 1033.4 0.0
28/05:30pm 9.4 7.8 6.3 81 1.4 WNW 4 4 2 2 1033.3 1033.3 0.0
28/05:00pm 11.1 9.0 6.8 75 2.0 WNW 7 11 4 6 1033.1 1033.1 0.0
28/04:30pm 11.6 8.8 7.1 74 2.2 W 11 17 6 9 1033.1 1033.1 0.0
28/04:00pm 11.9 9.2 7.2 73 2.2 W 11 17 6 9 1033.1 1033.1 0.0
28/03:30pm 12.0 8.9 7.3 73 2.3 W 13 19 7 10 1033.1 1033.1 0.0
28/03:00pm 12.3 9.2 7.2 71 2.4 WSW 13 19 7 10 1033.1 1033.1 0.0
28/02:30pm 12.4 8.6 7.7 73 2.3 W 17 24 9 13 1032.9 1032.9 0.0
28/02:00pm 11.9 8.1 7.4 74 2.2 W 17 24 9 13 1033.1 1033.1 0.0
28/01:30pm 11.6 8.2 7.7 77 1.9 W 15 28 8 15 1033.3 1033.3 0.0
28/01:00pm 11.4 7.9 7.3 76 1.9 W 15 20 8 11 1033.6 1033.6 0.0
28/12:30pm 11.7 8.3 7.8 77 1.9 WNW 15 20 8 11 1033.8 1033.8 0.0
28/12:00pm 11.7 8.8 8.0 78 1.8 WNW 13 19 7 10 1034.1 1034.1 0.0
28/11:30am 10.7 7.7 7.6 81 1.5 WNW 13 19 7 10 1034.6 1034.6 0.0
28/11:00am 10.0 6.1 7.3 83 1.3 NW 17 22 9 12 1034.8 1034.8 0.0
28/10:30am 10.1 6.3 7.7 85 1.2 NW 17 26 9 14 1035.0 1035.0 0.0
28/10:00am 9.3 6.2 7.3 87 0.9 NW 13 19 7 10 1034.5 1034.5 0.0
28/09:30am 8.8 5.3 7.1 89 0.8 WNW 15 20 8 11 1034.6 1034.6 0.0
28/09:00am 8.7 6.0 7.3 91 0.7 WNW 11 17 6 9 1034.3 1034.3 5.8
28/08:30am 8.8 6.6 7.7 93 0.5 NW 9 15 5 8 1033.9 1033.9 5.6
28/08:00am 8.5 5.4 7.3 92 0.6 WNW 13 24 7 13 1033.6 1033.6 5.6
28/07:30am 8.4 5.3 7.3 93 0.5 NW 13 19 7 10 1033.1 1033.1 5.6
28/07:00am 8.0 5.6 6.9 93 0.5 NW 9 13 5 7 1032.7 1032.7 5.6
28/06:30am 8.5 5.8 7.3 92 0.6 WNW 11 19 6 10 1032.4 1032.4 5.6
28/06:00am 8.5 6.5 7.3 92 0.6 WNW 7 13 4 7 1032.0 1032.0 5.6
28/05:30am 8.6 5.9 7.4 92 0.6 WNW 11 17 6 9 1031.7 1031.7 5.6
28/05:00am 8.6 5.9 7.4 92 0.6 WNW 11 15 6 8 1031.4 1031.4 5.6
28/04:30am 8.7 6.0 7.5 92 0.6 WNW 11 15 6 8 1031.2 1031.2 5.0
28/04:00am 8.4 5.7 7.2 92 0.6 WNW 11 19 6 10 1031.0 1031.0 4.6
28/03:30am 8.7 6.0 7.3 91 0.7 WNW 11 17 6 9 1031.0 1031.0 4.4
28/03:00am 8.7 5.6 7.3 91 0.7 WNW 13 19 7 10 1030.8 1030.8 4.4
28/02:30am 8.8 5.7 7.4 91 0.7 WNW 13 20 7 11 1030.8 1030.8 4.2
28/02:00am 8.6 5.1 7.1 90 0.7 WNW 15 24 8 13 1030.5 1030.5 4.2
28/01:30am 8.4 5.2 6.9 90 0.7 WNW 13 19 7 10 1030.2 1030.2 4.2
28/01:00am 8.5 5.0 7.0 90 0.7 WNW 15 22 8 12 1030.2 1030.2 4.2
28/12:30am 8.5 4.9 6.8 89 0.8 WNW 15 24 8 13 1030.2 1030.2 4.0
28/12:00am 8.7 5.1 6.8 88 0.9 WNW 15 24 8 13 1030.1 1030.1 4.0
 
Date/Time
EST
Temp
°C
App
Temp
°C
Dew
Point
Rel
Hum
%
Delta-T
°C
Wind Press
QNH
hPa
Press
MSL
hPa
Rain
since 9 am
mm
Dir
 
Spd
km/h
Gust
km/h
Spd
kts
Gust
kts
27/11:30pm 8.9 5.0 6.9 87 0.9 WNW 17 26 9 14 1030.1 1030.1 4.0
27/11:00pm 8.7 4.7 6.5 86 1.0 NW 17 26 9 14 1030.2 1030.2 4.0
27/10:30pm 8.6 4.9 6.4 86 1.0 NW 15 20 8 11 1030.2 1030.2 4.0
27/10:00pm 8.5 5.1 6.1 85 1.1 NW 13 19 7 10 1030.2 1030.2 4.0
27/09:30pm 8.6 5.6 6.1 84 1.1 NW 11 20 6 11 1030.1 1030.1 4.0
27/09:00pm 9.1 5.8 6.2 82 1.3 NW 13 19 7 10 1030.0 1030.0 4.0
27/08:30pm 9.5 6.8 5.7 77 1.7 WNW 9 13 5 7 1029.9 1029.9 4.0
27/08:00pm 10.0 7.0 5.8 75 1.9 WNW 11 17 6 9 1029.8 1029.8 4.0
27/07:30pm 9.7 6.2 5.5 75 1.9 W 13 20 7 11 1029.8 1029.8 4.0
27/07:00pm 9.2 6.5 5.4 77 1.7 W 9 13 5 7 1029.5 1029.5 4.0
27/06:30pm 9.6 6.6 5.8 77 1.7 W 11 22 6 12 1029.2 1029.2 4.0
27/06:00pm 9.5 6.8 5.5 76 1.8 W 9 15 5 8 1028.9 1028.9 4.0
27/05:30pm 9.9 6.8 5.5 74 2.0 W 11 17 6 9 1028.6 1028.6 4.0
27/05:00pm 10.3 6.0 5.3 71 2.3 WSW 17 26 9 14 1028.4 1028.4 4.0
27/04:30pm 11.1 7.4 6.3 72 2.2 W 15 22 8 12 1028.1 1028.1 4.0
27/04:00pm 11.1 7.9 7.0 76 1.9 W 13 26 7 14 1027.8 1027.8 4.0
27/03:30pm 10.3 5.9 6.5 77 1.8 WSW 19 32 10 17 1027.6 1027.6 4.0
27/03:00pm 11.6 6.8 7.5 76 2.0 WSW 22 35 12 19 1027.2 1027.2 3.6
27/02:30pm 10.7 7.7 7.9 83 1.4 W 13 20 7 11 1027.0 1027.0 3.6
27/02:00pm 10.4 6.6 7.5 82 1.4 WSW 17 28 9 15 1027.1 1027.1 2.8
27/01:30pm 9.3 6.1 6.9 85 1.1 W 13 24 7 13 1027.0 1027.0 2.6
27/01:00pm 9.6 6.6 7.7 88 0.9 W 13 20 7 11 1027.2 1027.2 1.6
27/12:30pm 10.0 5.7 7.1 82 1.4 W 19 30 10 16 1027.3 1027.3 1.2
27/12:00pm 9.1 5.2 6.9 86 1.0 WNW 17 22 9 12 1027.7 1027.7 1.0
27/11:30am 9.6 5.1 7.0 84 1.2 WNW 20 28 11 15 1027.6 1027.6 0.4
27/11:00am 9.3 4.8 6.9 85 1.1 WNW 20 33 11 18 1027.5 1027.5 0.4
27/10:30am 8.8 5.7 7.1 89 0.8 WNW 13 20 7 11 1027.5 1027.5 0.4
27/10:00am 7.5 2.7 5.8 89 0.8 WNW 20 35 11 19 1027.3 1027.3 0.2
27/09:30am 8.0 4.7 6.3 89 0.8 NW 13 19 7 10 1026.8 1026.8 0.2
27/09:00am 7.0 3.1 5.5 90 0.7 WNW 15 26 8 14 1026.5 1026.5 13.0
27/08:30am 6.6 2.6 5.1 90 0.7 WNW 15 24 8 13 1026.2 1026.2 11.8
27/08:00am 6.3 2.7 4.8 90 0.6 WNW 13 19 7 10 1025.5 1025.5 11.6
27/07:30am 6.2 2.5 4.5 89 0.7 WNW 13 24 7 13 1025.2 1025.2 11.2
27/07:00am 6.3 2.6 4.6 89 0.7 W 13 28 7 15 1025.0 1025.0 11.0
27/06:30am 6.2 2.5 4.5 89 0.7 WNW 13 22 7 12 1024.1 1024.1 10.0
27/06:00am 6.4 2.4 4.7 89 0.7 W 15 24 8 13 1024.2 1024.2 9.8
27/05:30am 6.2 2.1 4.5 89 0.7 WNW 15 22 8 12 1023.6 1023.6 9.2
27/05:00am 6.3 1.3 4.6 89 0.7 WNW 20 33 11 18 1023.5 1023.5 9.0
27/04:30am 6.3 1.4 4.3 87 0.9 WNW 19 33 10 18 1022.8 1022.8 8.2
27/04:00am 6.1 1.0 4.3 88 0.8 WNW 20 32 11 17 1022.9 1022.9 8.2
27/03:30am 6.2 1.7 4.4 88 0.8 WNW 17 24 9 13 1022.5 1022.5 6.8
27/03:00am 6.2 1.7 4.2 87 0.9 WNW 17 26 9 14 1022.2 1022.2 5.6
27/02:30am 6.2 1.7 4.2 87 0.9 WNW 17 32 9 17 1022.1 1022.1 5.6
27/02:00am 6.5 2.5 4.7 88 0.8 WNW 15 22 8 12 1021.8 1021.8 5.4
27/01:30am 6.5 2.8 4.5 87 0.9 WNW 13 19 7 10 1021.5 1021.5 4.8
27/01:00am 6.3 2.2 4.1 86 0.9 WNW 15 24 8 13 1021.3 1021.3 4.8
27/12:30am 6.5 2.3 4.0 84 1.1 WNW 15 20 8 11 1021.3 1021.3 3.0
27/12:00am 6.7 2.3 4.5 86 0.9 WNW 17 32 9 17 1020.9 1020.9 2.8
 
Date/Time
EST
Temp
°C
App
Temp
°C
Dew
Point
Rel
Hum
%
Delta-T
°C
Wind Press
QNH
hPa
Press
MSL
hPa
Rain
since 9 am
mm
Dir
 
Spd
km/h
Gust
km/h
Spd
kts
Gust
kts
26/11:30pm 6.6 2.5 4.4 86 0.9 WNW 15 24 8 13 1020.3 1020.3 2.4
26/11:00pm 6.8 3.2 5.0 88 0.8 WSW 13 17 7 9 1020.4 1020.4 2.2
26/10:30pm 6.7 1.9 4.7 87 0.9 WNW 19 28 10 15 1019.8 1019.8 2.2
26/10:00pm 7.0 2.0 4.8 86 1.0 WNW 20 30 11 16 1019.8 1019.8 1.8
26/09:30pm 7.1 1.6 4.2 82 1.3 WNW 22 37 12 20 1019.5 1019.5 1.0
26/09:00pm 7.0 1.5 4.1 82 1.2 WNW 22 37 12 20 1018.7 1018.7 0.8
26/08:30pm 7.5 1.6 3.9 78 1.5 WNW 24 41 13 22 1018.0 1018.0 0.8
26/08:00pm 7.4 1.5 3.8 78 1.5 WNW 24 37 13 20 1017.8 1017.8 0.6
26/07:30pm 7.7 1.6 3.0 72 2.0 WNW 24 41 13 22 1017.2 1017.2 0.4
26/07:01pm 7.8 1.0 2.9 71 2.1 WNW 28 48 15 26 1017.0 1017.0 0.4
26/07:00pm 7.8 1.4 3.1 72 2.0 WNW 26 48 14 26 1016.9 1016.9 0.4
26/06:30pm 7.6 1.5 2.7 71 2.0 WNW 24 39 13 21 1015.9 1015.9 0.4
26/06:00pm 7.7 1.6 2.6 70 2.1 WNW 24 43 13 23 1015.6 1015.6 0.4
26/05:30pm 8.2 1.7 2.7 68 2.3 WNW 26 44 14 24 1015.3 1015.3 0.4

Other Formats:

Comma delimited format used in spreadsheet applications
http://www.bom.gov.au/fwo/IDV60801/IDV60801.94898.axf

JavaScript Object Notation format (JSON) in row-major order
http://www.bom.gov.au/fwo/IDV60801/IDV60801.94898.json